^^
Station Historical Data
Daily Summary for August 10, 2017 Units:  Metric    English   Both
« Previous Day
Next Day »
Daily Weekly Monthly Yearly Custom
  High: Low: Average:
Temperature: 24.5 °C 4.1 °C 14.2 °C
Dew Point: -7.3 °C -16.9 °C -11.9 °C
Humidity: 40% 7% 17%
Wind Speed: 9.7km/h 0km/h 0.8km/h
Wind Gust: 19.3km/h - -
Wind- - NW
Pressure: 1020.9 hPa 1018.2 hPa -
Precipitation: 0 mm    
Historical Graphs
 
 
Tabular Data for August 10, 2017
Time Temperature Dew Point Pressure Wind Wind Speed Wind Gust Humidity Rainfall Rate (Hourly) solar Conditions
07:05 4.1 °C -8.6 °C 1019.5 hPa Calm     39% 0 mm 19.0 W/m2
07:20 5.2 °C -7.3 °C 1019.9 hPa Calm     40% 0 mm 95.0 W/m2
07:29 8.1 °C -8.9 °C 1020.2 hPa Calm     29% 0 mm 155.0 W/m2
07:50 9.6 °C -13.6 °C 1020.2 hPa Calm     18% 0 mm 220.0 W/m2
08:00 12 °C -16.6 °C 1020.5 hPa Calm     12% 0 mm 269.0 W/m2
08:10 12.9 °C -16.9 °C 1020.5 hPa Calm   19.3 km/h 11% 0 mm 301.0 W/m2
08:25 13.8 °C -16.2 °C 1020.5 hPa NW 3.2 km/h 12.9 km/h 11% 0 mm 343.0 W/m2
08:30 13.8 °C -16.2 °C 1020.5 hPa NW 3.2 km/h 12.9 km/h 11% 0 mm 343.0 W/m2
08:41 14.4 °C -15.7 °C 1020.5 hPa Calm   9.7 km/h 11% 0 mm 373.0 W/m2
08:56 15.4 °C -15 °C 1020.5 hPa Calm     11% 0 mm 417.0 W/m2
09:12 16.2 °C -14.3 °C 1020.5 hPa NW 3.2 km/h 3.2 km/h 11% 0 mm 455.0 W/m2
09:26 17.1 °C -13.6 °C 1020.9 hPa Calm   3.2 km/h 11% 0 mm 496.0 W/m2
09:32 17.4 °C -12.3 °C 1020.9 hPa Calm     12% 0 mm 522.0 W/m2
09:52 18.1 °C -10.8 °C 1020.9 hPa Calm     13% 0 mm 555.0 W/m2
09:57 18.7 °C -10.3 °C 1020.9 hPa Calm     13% 0 mm 573.0 W/m2
10:13 19.6 °C -7.8 °C 1020.9 hPa Calm     15% 0 mm 606.0 W/m2
10:36 20.5 °C -8.9 °C 1020.5 hPa Calm     13% 0 mm 631.0 W/m2
10:49 21 °C -10.6 °C 1020.5 hPa Calm     11% 0 mm 659.0 W/m2
11:04 21.5 °C -11.4 °C 1020.2 hPa Calm   9.7 km/h 10% 0 mm 673.0 W/m2
11:25 22.3 °C -13.6 °C 1019.9 hPa Calm   1.6 km/h 8% 0 mm 682.0 W/m2
11:40 22.9 °C -14.8 °C 1019.5 hPa Calm   9.7 km/h 7% 0 mm 691.0 W/m2
11:50 23.1 °C -13 °C 1019.5 hPa Calm     8% 0 mm 693.0 W/m2
12:11 23.3 °C -12.8 °C 1019.2 hPa NW 7.9 km/h 16.1 km/h 8% 0 mm 691.0 W/m2
12:27 23.8 °C -12.5 °C 1018.8 hPa Calm   6.4 km/h 8% 0 mm 687.0 W/m2
12:42 24.4 °C -13.7 °C 1018.5 hPa NW 9.7 km/h 11.3 km/h 7% 0 mm 679.0 W/m2
12:54 24.5 °C -13.6 °C 1018.2 hPa NW 7.9 km/h 12.9 km/h 7% 0 mm 666.0 W/m2
21:59 11.3 °C -8.6 °C 1019.5 hPa Calm     24% 0 mm 0.0 W/m2
22:09 10.8 °C -10.7 °C 1019.5 hPa Calm     21% 0 mm 0.0 W/m2
22:15 10.6 °C -10.3 °C 1019.5 hPa Calm     22% 0 mm 0.0 W/m2
22:20 10.3 °C -9.4 °C 1019.5 hPa Calm     24% 0 mm 0.0 W/m2
22:25 10.4 °C -9.9 °C 1019.5 hPa Calm     23% 0 mm 0.0 W/m2
22:35 9.9 °C -9.7 °C 1019.5 hPa Calm     24% 0 mm 0.0 W/m2
22:45 10.1 °C -10.1 °C 1019.9 hPa Calm     23% 0 mm 0.0 W/m2
22:50 10.1 °C -10.7 °C 1019.5 hPa Calm     22% 0 mm 0.0 W/m2
22:57 9.7 °C -9.9 °C 1019.5 hPa Calm     24% 0 mm 0.0 W/m2
23:26 8.6 °C -11.9 °C 1019.9 hPa Calm     22% 0 mm 0.0 W/m2
23:32 8.3 °C -11.1 °C 1019.9 hPa Calm     24% 0 mm 0.0 W/m2
23:37 8.2 °C -11.2 °C 1019.9 hPa Calm     24% 0 mm 0.0 W/m2
23:42 8.2 °C -11.7 °C 1020.2 hPa Calm     23% 0 mm 0.0 W/m2
23:47 8.2 °C -11.2 °C 1019.9 hPa Calm     24% 0 mm 0.0 W/m2
23:52 8.1 °C -11.3 °C 1019.9 hPa Calm     24% 0 mm 0.0 W/m2
23:57 7.9 °C -12 °C 1019.9 hPa Calm     23% 0 mm 0.0 W/m2
Canyon Roadhouse, Fishriver Canyon, Namibia
Compliments of Weather Underground - 1.75 mb